Airfield :
LOGIN :

Register | Disclaimer

   EN    FR    IT 

 










Legend :    VFR   Marginal VFR   IFR   Intensive IFR   Very Intensive IFR
Visi :
Ceiling :
>= 8 km
>= 3000ft
5 to 8 km
1000 to 3000 ft
1500m to 5 km
500 to 1000 ft
800 to 1500m
200 to 500 ft
< 800m
< 200 ft
Symbols :   Thunderstorms  Fog  Heavy snow  Heavy precipitations  Wind > 20 kt
SIGMETs :     Misc.  Thunderstorms  Icing  Turbulence  Mountain Waves  Volcanic Ashes






- Airport Elevation : 102 ft
- IATA code : EXT


EGTE - Exeter

CURRENT METAR :
  • 231150Z VRB02KT 9999 0600E R08/2000 PRFG FEW010 10/10 Q1012

EXPIRED METARs :
  • 231120Z VRB02KT 0600 R26/0400 FG VV/// 08/08 Q1012
  • 231050Z VRB02KT 0300 R26/0450 FG VV/// 06/06 Q1013
  • 231020Z VRB02KT 0300 R26/0375 FG VV/// 06/06 Q1013
  • 230950Z VRB02KT 0300 R26/0350 FG VV/// 05/05 Q1014
  • 230920Z VRB02KT 0400 R26/0550 FG VV/// 04/04 Q1014

TAF TAF EGTE
Valid from the 23 at 12:00 until the 23 at 21:00 UTC


231058Z 2312/2321 VRB03KT 0300 FG VV///
BECMG 2312/2315 9999 NSW SCT025
TEMPO 2313/2321 7000 -RADZ BKN012
PROB30
TEMPO 2318/2321 3000 RADZ BKN005



MET'MAP, your aeronautical weather chart ! - Copyright ORBIFLY December 2007 - Disclaimer

ORBIFLY MET'MAP TEAM :

Programming & Development : Alexandra Zaïnal
Concept & Development : Baudouin d'Aumeries
Co-Development & Prog : Marc-Olivier Méhu
Technical & hardware support : Manuel Goepfert

Contact : metmap@orbifly.com




SOURCES & CREDITS :

   NOAA